Glasston, North Dakota
Current Conditions -  °F | °C
As of 3:15 PM on Tuesday 21 Oct 2014 (Local Time) from K2C8 Reporting Station
Clear Clear  
Wind Chill: 63°   Ceiling: Unl
Heat Index: 63°   Visibility: 10mi
Dew Point: 43°   Wind: 21mph
Humidity: 48%   Direction: 150°SSE
Pressure: 29.84"   Gusts: 29mph
Location:  48.71°N, 97.45°W
Report Text: K2C8 212015Z AUTO 15018G25KT 10SM CLR 17/06 A2984 RMK AO2
Loading
Personal Weather Stations






























Interactive Weather Map
Tropical Storm Tracking
New forecast layout! Learn more

10-Day Weather Forecast

Advertisements
Track Severe Weather on mobile